sensor_id;sensor_type;location;lat;lon;timestamp;pressure;altitude;pressure_sealevel;temperature;humidity
6433;BME280;3249;42.690;23.260;2022-07-23T00:01:33;94755.00;;;19.74;100.00
6433;BME280;3249;42.690;23.260;2022-07-23T00:03:59;94741.91;;;19.69;100.00
6433;BME280;3249;42.690;23.260;2022-07-23T00:06:25;94763.34;;;19.51;100.00
6433;BME280;3249;42.690;23.260;2022-07-23T00:08:50;94758.91;;;19.56;100.00
6433;BME280;3249;42.690;23.260;2022-07-23T00:11:16;94767.53;;;19.67;100.00
6433;BME280;3249;42.690;23.260;2022-07-23T00:13:42;94763.88;;;19.63;100.00
6433;BME280;3249;42.690;23.260;2022-07-23T00:16:08;94771.44;;;19.54;100.00
6433;BME280;3249;42.690;23.260;2022-07-23T00:18:33;94762.81;;;19.69;100.00
6433;BME280;3249;42.690;23.260;2022-07-23T00:20:59;94748.47;;;19.76;100.00
6433;BME280;3249;42.690;23.260;2022-07-23T00:23:24;94770.69;;;19.99;100.00
6433;BME280;3249;42.690;23.260;2022-07-23T00:25:51;94777.22;;;19.86;100.00
6433;BME280;3249;42.690;23.260;2022-07-23T00:28:20;94779.84;;;19.96;100.00
6433;BME280;3249;42.690;23.260;2022-07-23T00:30:45;94775.38;;;19.92;100.00
6433;BME280;3249;42.690;23.260;2022-07-23T00:33:11;94774.31;;;19.73;100.00
6433;BME280;3249;42.690;23.260;2022-07-23T00:35:38;94757.81;;;19.32;100.00
6433;BME280;3249;42.690;23.260;2022-07-23T00:38:07;94768.44;;;19.11;100.00
6433;BME280;3249;42.690;23.260;2022-07-23T00:40:33;94766.81;;;19.05;100.00
6433;BME280;3249;42.690;23.260;2022-07-23T00:42:58;94770.47;;;19.04;100.00
6433;BME280;3249;42.690;23.260;2022-07-23T00:45:25;94774.56;;;18.85;100.00
6433;BME280;3249;42.690;23.260;2022-07-23T00:47:50;94767.47;;;18.70;100.00
6433;BME280;3249;42.690;23.260;2022-07-23T00:50:16;94776.34;;;18.74;100.00
6433;BME280;3249;42.690;23.260;2022-07-23T00:52:42;94772.44;;;18.72;100.00
6433;BME280;3249;42.690;23.260;2022-07-23T00:55:09;94765.25;;;18.94;100.00
6433;BME280;3249;42.690;23.260;2022-07-23T00:57:36;94775.16;;;18.97;100.00
6433;BME280;3249;42.690;23.260;2022-07-23T01:00:04;94730.63;;;18.57;100.00
6433;BME280;3249;42.690;23.260;2022-07-23T01:02:29;94766.97;;;18.78;100.00
6433;BME280;3249;42.690;23.260;2022-07-23T01:04:55;94767.22;;;18.72;100.00
6433;BME280;3249;42.690;23.260;2022-07-23T01:07:21;94753.59;;;18.60;100.00
6433;BME280;3249;42.690;23.260;2022-07-23T01:09:47;94760.03;;;18.47;100.00
6433;BME280;3249;42.690;23.260;2022-07-23T01:12:12;94765.47;;;18.41;100.00
6433;BME280;3249;42.690;23.260;2022-07-23T01:14:38;94746.91;;;18.32;100.00
6433;BME280;3249;42.690;23.260;2022-07-23T01:17:04;94750.66;;;18.51;100.00
6433;BME280;3249;42.690;23.260;2022-07-23T01:19:29;94763.59;;;18.78;100.00
6433;BME280;3249;42.690;23.260;2022-07-23T01:21:57;94757.38;;;18.89;100.00
6433;BME280;3249;42.690;23.260;2022-07-23T01:24:23;94767.22;;;18.72;100.00
6433;BME280;3249;42.690;23.260;2022-07-23T01:26:49;94770.56;;;18.62;100.00
6433;BME280;3249;42.690;23.260;2022-07-23T01:29:15;94769.59;;;18.78;100.00
6433;BME280;3249;42.690;23.260;2022-07-23T01:31:41;94758.44;;;18.93;100.00
6433;BME280;3249;42.690;23.260;2022-07-23T01:34:07;94754.28;;;18.97;100.00
6433;BME280;3249;42.690;23.260;2022-07-23T01:36:33;94746.69;;;18.90;100.00
6433;BME280;3249;42.690;23.260;2022-07-23T01:38:59;94740.31;;;18.66;100.00
6433;BME280;3249;42.690;23.260;2022-07-23T01:41:24;94745.06;;;18.74;100.00
6433;BME280;3249;42.690;23.260;2022-07-23T01:43:50;94762.09;;;18.92;100.00
6433;BME280;3249;42.690;23.260;2022-07-23T01:46:15;94731.28;;;18.84;100.00
6433;BME280;3249;42.690;23.260;2022-07-23T01:48:40;94755.88;;;18.98;100.00
6433;BME280;3249;42.690;23.260;2022-07-23T01:51:06;94758.41;;;18.83;100.00
6433;BME280;3249;42.690;23.260;2022-07-23T01:53:31;94753.59;;;18.60;100.00
6433;BME280;3249;42.690;23.260;2022-07-23T01:55:58;94745.66;;;18.35;100.00
6433;BME280;3249;42.690;23.260;2022-07-23T01:58:24;94759.13;;;18.27;100.00
6433;BME280;3249;42.690;23.260;2022-07-23T02:00:50;94751.44;;;18.47;100.00
6433;BME280;3249;42.690;23.260;2022-07-23T02:03:15;94715.94;;;18.36;100.00
6433;BME280;3249;42.690;23.260;2022-07-23T02:05:41;94735.25;;;18.40;100.00
6433;BME280;3249;42.690;23.260;2022-07-23T02:08:06;94754.09;;;18.57;100.00
6433;BME280;3249;42.690;23.260;2022-07-23T02:10:32;94757.88;;;18.34;100.00
6433;BME280;3249;42.690;23.260;2022-07-23T02:12:57;94758.75;;;18.13;100.00
6433;BME280;3249;42.690;23.260;2022-07-23T02:15:23;94735.78;;;18.05;100.00
6433;BME280;3249;42.690;23.260;2022-07-23T02:17:48;94756.91;;;18.08;100.00
6433;BME280;3249;42.690;23.260;2022-07-23T02:20:14;94759.34;;;18.20;100.00
6433;BME280;3249;42.690;23.260;2022-07-23T02:22:39;94751.31;;;18.32;100.00
6433;BME280;3249;42.690;23.260;2022-07-23T02:25:06;94747.31;;;18.51;100.00
6433;BME280;3249;42.690;23.260;2022-07-23T02:27:32;94755.66;;;18.58;100.00
6433;BME280;3249;42.690;23.260;2022-07-23T02:29:57;94756.22;;;18.65;100.00
6433;BME280;3249;42.690;23.260;2022-07-23T02:32:23;94752.69;;;18.39;100.00
6433;BME280;3249;42.690;23.260;2022-07-23T02:34:49;94756.06;;;18.35;100.00
6433;BME280;3249;42.690;23.260;2022-07-23T02:37:14;94751.28;;;18.27;100.00
6433;BME280;3249;42.690;23.260;2022-07-23T02:39:40;94757.34;;;18.32;100.00
6433;BME280;3249;42.690;23.260;2022-07-23T02:42:05;94754.56;;;18.49;100.00
6433;BME280;3249;42.690;23.260;2022-07-23T02:44:31;94735.50;;;18.43;100.00
6433;BME280;3249;42.690;23.260;2022-07-23T02:46:56;94764.59;;;18.67;100.00
6433;BME280;3249;42.690;23.260;2022-07-23T02:49:21;94768.75;;;18.68;100.00
6433;BME280;3249;42.690;23.260;2022-07-23T02:51:47;94744.31;;;18.32;100.00
6433;BME280;3249;42.690;23.260;2022-07-23T02:54:12;94761.41;;;18.60;100.00
6433;BME280;3249;42.690;23.260;2022-07-23T02:56:38;94770.66;;;18.36;100.00
6433;BME280;3249;42.690;23.260;2022-07-23T02:59:03;94771.56;;;18.20;100.00
6433;BME280;3249;42.690;23.260;2022-07-23T03:01:29;94763.19;;;18.13;100.00
6433;BME280;3249;42.690;23.260;2022-07-23T03:03:54;94774.88;;;18.10;100.00
6433;BME280;3249;42.690;23.260;2022-07-23T03:06:19;94778.69;;;17.97;100.00
6433;BME280;3249;42.690;23.260;2022-07-23T03:08:45;94789.13;;;17.97;100.00
6433;BME280;3249;42.690;23.260;2022-07-23T03:11:10;94782.22;;;18.13;100.00
6433;BME280;3249;42.690;23.260;2022-07-23T03:13:40;94791.69;;;18.24;100.00
6433;BME280;3249;42.690;23.260;2022-07-23T03:16:06;94794.00;;;18.26;100.00
6433;BME280;3249;42.690;23.260;2022-07-23T03:18:32;94779.88;;;18.17;100.00
6433;BME280;3249;42.690;23.260;2022-07-23T03:20:58;94778.91;;;18.23;100.00
6433;BME280;3249;42.690;23.260;2022-07-23T03:23:23;94786.25;;;18.31;100.00
6433;BME280;3249;42.690;23.260;2022-07-23T03:25:49;94800.41;;;18.40;100.00
6433;BME280;3249;42.690;23.260;2022-07-23T03:28:15;94777.69;;;18.35;100.00
6433;BME280;3249;42.690;23.260;2022-07-23T03:30:45;94803.69;;;18.62;100.00
6433;BME280;3249;42.690;23.260;2022-07-23T03:33:14;94807.09;;;18.67;100.00
6433;BME280;3249;42.690;23.260;2022-07-23T03:35:42;94805.41;;;18.93;100.00
6433;BME280;3249;42.690;23.260;2022-07-23T03:38:08;94807.88;;;18.68;100.00
6433;BME280;3249;42.690;23.260;2022-07-23T03:40:33;94814.16;;;18.67;100.00
6433;BME280;3249;42.690;23.260;2022-07-23T03:42:58;94822.09;;;18.87;100.00
6433;BME280;3249;42.690;23.260;2022-07-23T03:45:24;94822.06;;;18.82;100.00
6433;BME280;3249;42.690;23.260;2022-07-23T03:47:49;94814.97;;;19.29;100.00
6433;BME280;3249;42.690;23.260;2022-07-23T03:50:14;94810.84;;;19.38;100.00
6433;BME280;3249;42.690;23.260;2022-07-23T03:52:40;94808.19;;;19.33;100.00
6433;BME280;3249;42.690;23.260;2022-07-23T03:55:06;94811.94;;;19.67;100.00
6433;BME280;3249;42.690;23.260;2022-07-23T03:57:32;94806.25;;;20.05;100.00
6433;BME280;3249;42.690;23.260;2022-07-23T03:59:57;94819.59;;;20.18;100.00
6433;BME280;3249;42.690;23.260;2022-07-23T04:02:22;94824.53;;;20.55;100.00
6433;BME280;3249;42.690;23.260;2022-07-23T04:04:48;94825.03;;;20.77;100.00
6433;BME280;3249;42.690;23.260;2022-07-23T04:07:14;94809.56;;;20.90;100.00
6433;BME280;3249;42.690;23.260;2022-07-23T04:09:39;94827.56;;;21.12;100.00
6433;BME280;3249;42.690;23.260;2022-07-23T04:12:08;94815.97;;;21.33;100.00
6433;BME280;3249;42.690;23.260;2022-07-23T04:14:33;94829.44;;;21.65;100.00
6433;BME280;3249;42.690;23.260;2022-07-23T04:16:59;94831.63;;;21.48;100.00
6433;BME280;3249;42.690;23.260;2022-07-23T04:19:24;94835.56;;;21.45;100.00
6433;BME280;3249;42.690;23.260;2022-07-23T04:21:50;94828.44;;;21.51;100.00
6433;BME280;3249;42.690;23.260;2022-07-23T04:24:15;94826.28;;;21.73;100.00
6433;BME280;3249;42.690;23.260;2022-07-23T04:26:41;94838.72;;;21.37;100.00
6433;BME280;3249;42.690;23.260;2022-07-23T04:29:06;94814.53;;;20.92;100.00
6433;BME280;3249;42.690;23.260;2022-07-23T04:31:31;94837.75;;;21.23;100.00
6433;BME280;3249;42.690;23.260;2022-07-23T04:33:57;94832.44;;;21.43;100.00
6433;BME280;3249;42.690;23.260;2022-07-23T04:36:22;94831.69;;;21.33;100.00
6433;BME280;3249;42.690;23.260;2022-07-23T04:38:48;94850.81;;;21.38;100.00
6433;BME280;3249;42.690;23.260;2022-07-23T04:41:13;94845.91;;;21.17;100.00
6433;BME280;3249;42.690;23.260;2022-07-23T04:43:38;94835.50;;;20.97;100.00
6433;BME280;3249;42.690;23.260;2022-07-23T04:46:04;94832.78;;;21.22;100.00
6433;BME280;3249;42.690;23.260;2022-07-23T04:48:31;94838.66;;;21.52;100.00
6433;BME280;3249;42.690;23.260;2022-07-23T04:50:57;94844.94;;;21.56;100.00
6433;BME280;3249;42.690;23.260;2022-07-23T04:53:22;94855.13;;;21.68;100.00
6433;BME280;3249;42.690;23.260;2022-07-23T04:55:48;94851.97;;;21.66;100.00
6433;BME280;3249;42.690;23.260;2022-07-23T04:58:13;94852.50;;;21.63;100.00
6433;BME280;3249;42.690;23.260;2022-07-23T05:00:39;94856.66;;;21.74;100.00
6433;BME280;3249;42.690;23.260;2022-07-23T05:03:04;94853.09;;;21.50;100.00
6433;BME280;3249;42.690;23.260;2022-07-23T05:05:30;94851.28;;;21.45;100.00
6433;BME280;3249;42.690;23.260;2022-07-23T05:07:55;94821.81;;;21.20;100.00
6433;BME280;3249;42.690;23.260;2022-07-23T05:10:20;94835.94;;;21.19;100.00
6433;BME280;3249;42.690;23.260;2022-07-23T05:12:46;94834.66;;;21.11;100.00
6433;BME280;3249;42.690;23.260;2022-07-23T05:15:11;94847.44;;;21.23;100.00
6433;BME280;3249;42.690;23.260;2022-07-23T05:17:37;94856.25;;;21.52;100.00
6433;BME280;3249;42.690;23.260;2022-07-23T05:20:02;94860.63;;;21.66;100.00
6433;BME280;3249;42.690;23.260;2022-07-23T05:22:28;94845.13;;;21.80;100.00
6433;BME280;3249;42.690;23.260;2022-07-23T05:24:54;94860.53;;;22.25;100.00
6433;BME280;3249;42.690;23.260;2022-07-23T05:27:19;94863.78;;;22.51;98.08
6433;BME280;3249;42.690;23.260;2022-07-23T05:29:44;94863.38;;;22.34;96.97
6433;BME280;3249;42.690;23.260;2022-07-23T05:32:10;94863.22;;;22.20;99.32
6433;BME280;3249;42.690;23.260;2022-07-23T05:34:35;94866.19;;;22.42;97.98
6433;BME280;3249;42.690;23.260;2022-07-23T05:37:01;94852.22;;;22.52;93.78
6433;BME280;3249;42.690;23.260;2022-07-23T05:39:26;94866.78;;;22.68;95.30
6433;BME280;3249;42.690;23.260;2022-07-23T05:41:51;94861.00;;;22.71;92.92
6433;BME280;3249;42.690;23.260;2022-07-23T05:44:17;94861.38;;;22.59;95.41
6433;BME280;3249;42.690;23.260;2022-07-23T05:46:42;94861.78;;;22.71;94.47
6433;BME280;3249;42.690;23.260;2022-07-23T05:49:08;94865.97;;;22.72;93.82
6433;BME280;3249;42.690;23.260;2022-07-23T05:51:33;94857.34;;;22.95;93.60
6433;BME280;3249;42.690;23.260;2022-07-23T05:53:59;94864.16;;;23.20;89.18
6433;BME280;3249;42.690;23.260;2022-07-23T05:56:24;94852.84;;;22.96;88.94
6433;BME280;3249;42.690;23.260;2022-07-23T05:58:50;94862.03;;;22.98;89.06
6433;BME280;3249;42.690;23.260;2022-07-23T06:01:15;94858.16;;;22.91;88.66
6433;BME280;3249;42.690;23.260;2022-07-23T06:03:40;94861.59;;;23.15;86.45
6433;BME280;3249;42.690;23.260;2022-07-23T06:06:06;94862.50;;;23.52;83.72
6433;BME280;3249;42.690;23.260;2022-07-23T06:08:32;94853.84;;;23.70;83.92
6433;BME280;3249;42.690;23.260;2022-07-23T06:10:57;94860.50;;;23.86;82.53
6433;BME280;3249;42.690;23.260;2022-07-23T06:13:23;94855.38;;;24.13;81.55
6433;BME280;3249;42.690;23.260;2022-07-23T06:15:48;94854.09;;;24.29;77.08
6433;BME280;3249;42.690;23.260;2022-07-23T06:18:13;94850.81;;;24.19;79.21
6433;BME280;3249;42.690;23.260;2022-07-23T06:20:39;94864.84;;;24.33;78.67
6433;BME280;3249;42.690;23.260;2022-07-23T06:23:05;94858.59;;;24.29;80.39
6433;BME280;3249;42.690;23.260;2022-07-23T06:25:30;94854.63;;;24.13;82.08
6433;BME280;3249;42.690;23.260;2022-07-23T06:27:55;94855.31;;;24.37;81.26
6433;BME280;3249;42.690;23.260;2022-07-23T06:30:21;94856.03;;;24.74;78.85
6433;BME280;3249;42.690;23.260;2022-07-23T06:32:48;94856.03;;;24.74;81.01
6433;BME280;3249;42.690;23.260;2022-07-23T06:35:13;94854.81;;;24.67;79.55
6433;BME280;3249;42.690;23.260;2022-07-23T06:37:39;94839.13;;;24.43;79.71
6433;BME280;3249;42.690;23.260;2022-07-23T06:40:05;94850.72;;;24.61;84.15
6433;BME280;3249;42.690;23.260;2022-07-23T06:42:30;94865.09;;;24.82;78.70
6433;BME280;3249;42.690;23.260;2022-07-23T06:44:56;94863.69;;;25.16;75.94
6433;BME280;3249;42.690;23.260;2022-07-23T06:47:21;94865.78;;;25.46;74.64
6433;BME280;3249;42.690;23.260;2022-07-23T06:49:47;94859.53;;;25.42;74.85
6433;BME280;3249;42.690;23.260;2022-07-23T06:52:12;94854.16;;;25.34;71.53
6433;BME280;3249;42.690;23.260;2022-07-23T06:54:37;94856.09;;;25.55;70.27
6433;BME280;3249;42.690;23.260;2022-07-23T06:57:03;94855.47;;;25.85;69.08
6433;BME280;3249;42.690;23.260;2022-07-23T06:59:28;94856.66;;;25.79;69.68
6433;BME280;3249;42.690;23.260;2022-07-23T07:01:54;94836.56;;;25.56;68.89
6433;BME280;3249;42.690;23.260;2022-07-23T07:04:19;94831.44;;;25.87;65.86
6433;BME280;3249;42.690;23.260;2022-07-23T07:06:45;94851.31;;;26.20;66.09
6433;BME280;3249;42.690;23.260;2022-07-23T07:09:10;94848.91;;;26.32;66.47
6433;BME280;3249;42.690;23.260;2022-07-23T07:11:36;94850.53;;;26.42;64.11
6433;BME280;3249;42.690;23.260;2022-07-23T07:14:01;94848.38;;;26.66;62.36
6433;BME280;3249;42.690;23.260;2022-07-23T07:16:27;94861.03;;;26.55;62.54
6433;BME280;3249;42.690;23.260;2022-07-23T07:18:52;94860.75;;;26.79;60.32
6433;BME280;3249;42.690;23.260;2022-07-23T07:21:17;94833.97;;;26.72;59.90
6433;BME280;3249;42.690;23.260;2022-07-23T07:23:43;94854.50;;;26.75;60.56
6433;BME280;3249;42.690;23.260;2022-07-23T07:26:08;94826.69;;;26.77;59.86
6433;BME280;3249;42.690;23.260;2022-07-23T07:28:34;94846.91;;;27.12;59.73
6433;BME280;3249;42.690;23.260;2022-07-23T07:30:59;94848.44;;;27.44;56.40
6433;BME280;3249;42.690;23.260;2022-07-23T07:33:27;94853.66;;;27.66;55.64
6433;BME280;3249;42.690;23.260;2022-07-23T07:35:53;94830.44;;;27.63;54.95
6433;BME280;3249;42.690;23.260;2022-07-23T07:38:21;94837.16;;;27.69;56.74
6433;BME280;3249;42.690;23.260;2022-07-23T07:40:47;94841.56;;;27.82;54.69
6433;BME280;3249;42.690;23.260;2022-07-23T07:43:12;94848.38;;;27.74;55.30
6433;BME280;3249;42.690;23.260;2022-07-23T07:45:38;94840.50;;;27.44;56.46
6433;BME280;3249;42.690;23.260;2022-07-23T07:48:04;94842.06;;;27.84;54.81
6433;BME280;3249;42.690;23.260;2022-07-23T07:50:30;94838.16;;;27.98;54.14
6433;BME280;3249;42.690;23.260;2022-07-23T07:52:55;94840.75;;;27.73;55.18
6433;BME280;3249;42.690;23.260;2022-07-23T07:55:21;94843.00;;;28.05;55.47
6433;BME280;3249;42.690;23.260;2022-07-23T07:57:46;94837.41;;;28.32;55.15
6433;BME280;3249;42.690;23.260;2022-07-23T08:00:12;94812.47;;;28.33;55.51
6433;BME280;3249;42.690;23.260;2022-07-23T08:02:41;94841.44;;;28.04;55.01
6433;BME280;3249;42.690;23.260;2022-07-23T08:05:07;94837.25;;;28.20;53.62
6433;BME280;3249;42.690;23.260;2022-07-23T08:07:33;94833.16;;;28.39;53.43
6433;BME280;3249;42.690;23.260;2022-07-23T08:09:58;94833.97;;;28.40;54.02
6433;BME280;3249;42.690;23.260;2022-07-23T08:12:23;94828.34;;;28.58;52.73
6433;BME280;3249;42.690;23.260;2022-07-23T08:14:49;94820.28;;;28.46;52.94
6433;BME280;3249;42.690;23.260;2022-07-23T08:17:14;94833.22;;;28.48;52.84
6433;BME280;3249;42.690;23.260;2022-07-23T08:19:40;94829.63;;;28.44;53.29
6433;BME280;3249;42.690;23.260;2022-07-23T08:22:05;94832.91;;;28.49;52.46
6433;BME280;3249;42.690;23.260;2022-07-23T08:24:31;94829.84;;;28.85;51.65
6433;BME280;3249;42.690;23.260;2022-07-23T08:26:56;94836.22;;;29.01;50.15
6433;BME280;3249;42.690;23.260;2022-07-23T08:29:21;94828.16;;;29.26;49.18
6433;BME280;3249;42.690;23.260;2022-07-23T08:31:47;94832.53;;;29.31;48.49
6433;BME280;3249;42.690;23.260;2022-07-23T08:34:12;94829.50;;;28.95;49.94
6433;BME280;3249;42.690;23.260;2022-07-23T08:36:37;94823.19;;;28.62;52.03
6433;BME280;3249;42.690;23.260;2022-07-23T08:39:03;94821.47;;;28.74;52.23
6433;BME280;3249;42.690;23.260;2022-07-23T08:41:29;94826.72;;;29.00;52.52
6433;BME280;3249;42.690;23.260;2022-07-23T08:43:55;94830.53;;;29.19;51.50
6433;BME280;3249;42.690;23.260;2022-07-23T08:46:22;94819.84;;;28.99;50.34
6433;BME280;3249;42.690;23.260;2022-07-23T08:48:48;94824.56;;;29.31;50.32
6433;BME280;3249;42.690;23.260;2022-07-23T08:51:14;94814.50;;;29.07;50.38
6433;BME280;3249;42.690;23.260;2022-07-23T08:53:41;94812.06;;;28.85;50.79
6433;BME280;3249;42.690;23.260;2022-07-23T08:56:07;94814.19;;;29.09;50.70
6433;BME280;3249;42.690;23.260;2022-07-23T08:58:33;94812.44;;;29.21;49.41
6433;BME280;3249;42.690;23.260;2022-07-23T09:00:59;94817.44;;;29.52;48.49
6433;BME280;3249;42.690;23.260;2022-07-23T09:03:29;94820.72;;;29.78;48.26
6433;BME280;3249;42.690;23.260;2022-07-23T09:05:56;94789.34;;;29.51;46.72
6433;BME280;3249;42.690;23.260;2022-07-23T09:08:43;94807.38;;;29.66;46.41
6433;BME280;3249;42.690;23.260;2022-07-23T09:11:15;94801.06;;;29.79;47.89
6433;BME280;3249;42.690;23.260;2022-07-23T09:16:26;94806.69;;;29.78;45.73
6433;BME280;3249;42.690;23.260;2022-07-23T09:19:02;94805.19;;;29.68;45.78
6433;BME280;3249;42.690;23.260;2022-07-23T09:21:30;94818.72;;;29.96;44.89
6433;BME280;3249;42.690;23.260;2022-07-23T09:24:11;94818.13;;;30.19;44.46
6433;BME280;3249;42.690;23.260;2022-07-23T09:26:44;94822.25;;;30.61;42.40
6433;BME280;3249;42.690;23.260;2022-07-23T09:34:25;94824.09;;;30.81;40.30
6433;BME280;3249;42.690;23.260;2022-07-23T09:36:54;94817.28;;;31.16;39.31
6433;BME280;3249;42.690;23.260;2022-07-23T09:39:31;94793.00;;;30.94;37.35
6433;BME280;3249;42.690;23.260;2022-07-23T09:41:57;94804.13;;;31.08;36.34
6433;BME280;3249;42.690;23.260;2022-07-23T09:44:23;94797.56;;;31.17;35.53
6433;BME280;3249;42.690;23.260;2022-07-23T09:46:50;94805.00;;;31.12;34.79
6433;BME280;3249;42.690;23.260;2022-07-23T09:49:21;94805.38;;;31.46;33.54
6433;BME280;3249;42.690;23.260;2022-07-23T09:51:55;94802.69;;;31.58;34.07
6433;BME280;3249;42.690;23.260;2022-07-23T09:56:54;94789.16;;;31.51;33.44
6433;BME280;3249;42.690;23.260;2022-07-23T09:59:24;94801.16;;;31.45;32.66
6433;BME280;3249;42.690;23.260;2022-07-23T10:01:53;94796.16;;;31.56;32.67
6433;BME280;3249;42.690;23.260;2022-07-23T10:04:21;94784.28;;;31.65;32.26
6433;BME280;3249;42.690;23.260;2022-07-23T10:06:47;94789.72;;;31.57;32.19
6433;BME280;3249;42.690;23.260;2022-07-23T10:09:22;94796.47;;;31.54;29.84
6433;BME280;3249;42.690;23.260;2022-07-23T10:11:48;94785.81;;;31.78;29.68
6433;BME280;3249;42.690;23.260;2022-07-23T10:14:15;94785.81;;;31.78;29.75
6433;BME280;3249;42.690;23.260;2022-07-23T10:16:41;94782.84;;;32.07;29.81
6433;BME280;3249;42.690;23.260;2022-07-23T10:19:07;94792.69;;;32.31;28.26
6433;BME280;3249;42.690;23.260;2022-07-23T10:21:48;94786.47;;;32.54;27.04
6433;BME280;3249;42.690;23.260;2022-07-23T10:24:28;94795.34;;;32.74;26.76
6433;BME280;3249;42.690;23.260;2022-07-23T10:32:25;94783.25;;;32.33;25.87
6433;BME280;3249;42.690;23.260;2022-07-23T10:35:17;94785.59;;;32.50;26.64
6433;BME280;3249;42.690;23.260;2022-07-23T10:37:48;94769.53;;;32.78;28.02
6433;BME280;3249;42.690;23.260;2022-07-23T10:40:22;94767.34;;;32.52;24.24
6433;BME280;3249;42.690;23.260;2022-07-23T10:42:50;94768.63;;;32.86;22.86
6433;BME280;3249;42.690;23.260;2022-07-23T10:45:36;94774.69;;;32.83;23.66
6433;BME280;3249;42.690;23.260;2022-07-23T10:48:15;94776.22;;;33.15;22.98
6433;BME280;3249;42.690;23.260;2022-07-23T10:50:42;94767.88;;;32.85;22.35
6433;BME280;3249;42.690;23.260;2022-07-23T10:53:17;94782.47;;;32.76;21.66
6433;BME280;3249;42.690;23.260;2022-07-23T10:55:51;94763.34;;;32.74;21.56
6433;BME280;3249;42.690;23.260;2022-07-23T10:58:22;94759.25;;;32.76;21.32
6433;BME280;3249;42.690;23.260;2022-07-23T11:00:48;94757.72;;;32.91;21.43
6433;BME280;3249;42.690;23.260;2022-07-23T11:03:35;94746.25;;;32.75;21.32
6433;BME280;3249;42.690;23.260;2022-07-23T11:06:03;94754.34;;;33.09;19.39
6433;BME280;3249;42.690;23.260;2022-07-23T11:08:40;94747.44;;;33.24;19.63
6433;BME280;3249;42.690;23.260;2022-07-23T11:11:14;94756.59;;;33.23;18.04
6433;BME280;3249;42.690;23.260;2022-07-23T11:13:46;94749.63;;;33.03;18.88
6433;BME280;3249;42.690;23.260;2022-07-23T11:16:23;94731.38;;;32.89;18.51
6433;BME280;3249;42.690;23.260;2022-07-23T11:24:06;94749.25;;;33.20;19.75
6433;BME280;3249;42.690;23.260;2022-07-23T11:31:56;94713.47;;;33.05;17.48
6433;BME280;3249;42.690;23.260;2022-07-23T11:34:34;94743.66;;;33.25;17.30
6433;BME280;3249;42.690;23.260;2022-07-23T11:37:04;94719.06;;;33.00;17.21
6433;BME280;3249;42.690;23.260;2022-07-23T11:39:31;94731.34;;;33.36;18.08
6433;BME280;3249;42.690;23.260;2022-07-23T11:41:58;94736.00;;;33.74;18.28
6433;BME280;3249;42.690;23.260;2022-07-23T11:44:38;94735.75;;;33.98;17.65
6433;BME280;3249;42.690;23.260;2022-07-23T11:47:06;94723.53;;;33.62;17.15
6433;BME280;3249;42.690;23.260;2022-07-23T11:49:33;94733.13;;;33.48;16.87
6433;BME280;3249;42.690;23.260;2022-07-23T11:54:33;94715.38;;;33.55;18.07
6433;BME280;3249;42.690;23.260;2022-07-23T11:57:03;94711.63;;;33.41;17.28
6433;BME280;3249;42.690;23.260;2022-07-23T11:59:31;94701.13;;;33.16;18.20
6433;BME280;3249;42.690;23.260;2022-07-23T12:02:03;94715.16;;;33.64;20.30
6433;BME280;3249;42.690;23.260;2022-07-23T12:04:45;94707.13;;;33.45;19.54
6433;BME280;3249;42.690;23.260;2022-07-23T12:07:37;94710.06;;;33.40;19.58
6433;BME280;3249;42.690;23.260;2022-07-23T12:10:19;94715.59;;;33.66;19.35
6433;BME280;3249;42.690;23.260;2022-07-23T12:12:47;94708.25;;;33.97;18.43
6433;BME280;3249;42.690;23.260;2022-07-23T12:15:16;94707.88;;;34.18;17.97
6433;BME280;3249;42.690;23.260;2022-07-23T12:17:45;94691.88;;;34.21;18.06
6433;BME280;3249;42.690;23.260;2022-07-23T12:20:14;94702.38;;;34.49;18.44
6433;BME280;3249;42.690;23.260;2022-07-23T12:22:43;94708.03;;;34.66;17.81
6433;BME280;3249;42.690;23.260;2022-07-23T12:25:12;94701.19;;;34.69;16.47
6433;BME280;3249;42.690;23.260;2022-07-23T12:27:44;94691.53;;;34.42;16.99
6433;BME280;3249;42.690;23.260;2022-07-23T12:31:01;94697.03;;;34.11;17.01
6433;BME280;3249;42.690;23.260;2022-07-23T12:33:38;94664.22;;;34.10;17.00
6433;BME280;3249;42.690;23.260;2022-07-23T12:36:08;94686.31;;;33.88;16.46
6433;BME280;3249;42.690;23.260;2022-07-23T12:38:42;94684.59;;;33.80;18.09
6433;BME280;3249;42.690;23.260;2022-07-23T12:41:09;94680.94;;;34.07;16.87
6433;BME280;3249;42.690;23.260;2022-07-23T12:43:46;94680.66;;;34.31;15.87
6433;BME280;3249;42.690;23.260;2022-07-23T12:46:19;94673.97;;;34.41;14.90
6433;BME280;3249;42.690;23.260;2022-07-23T12:51:24;94675.63;;;34.49;15.28
6433;BME280;3249;42.690;23.260;2022-07-23T12:53:52;94660.50;;;34.37;16.81
6433;BME280;3249;42.690;23.260;2022-07-23T12:56:30;94683.25;;;34.69;16.56
6433;BME280;3249;42.690;23.260;2022-07-23T12:58:56;94676.38;;;34.49;16.44
6433;BME280;3249;42.690;23.260;2022-07-23T13:04:13;94659.44;;;34.42;17.68
6433;BME280;3249;42.690;23.260;2022-07-23T13:06:57;94653.84;;;34.73;17.26
6433;BME280;3249;42.690;23.260;2022-07-23T13:09:27;94634.41;;;34.53;18.29
6433;BME280;3249;42.690;23.260;2022-07-23T13:11:54;94656.00;;;34.86;16.88
6433;BME280;3249;42.690;23.260;2022-07-23T13:14:21;94658.38;;;34.69;16.45
6433;BME280;3249;42.690;23.260;2022-07-23T13:16:47;94652.31;;;34.94;16.16
6433;BME280;3249;42.690;23.260;2022-07-23T13:19:13;94682.56;;;35.24;16.06
6433;BME280;3249;42.690;23.260;2022-07-23T13:21:40;94660.69;;;35.19;15.82
6433;BME280;3249;42.690;23.260;2022-07-23T13:24:06;94652.00;;;35.25;13.77
6433;BME280;3249;42.690;23.260;2022-07-23T13:26:32;94662.28;;;35.49;14.42
6433;BME280;3249;42.690;23.260;2022-07-23T13:28:58;94652.09;;;35.62;12.99
6433;BME280;3249;42.690;23.260;2022-07-23T13:31:23;94653.06;;;35.76;14.00
6433;BME280;3249;42.690;23.260;2022-07-23T13:33:49;94664.66;;;35.54;13.37
6433;BME280;3249;42.690;23.260;2022-07-23T13:36:15;94651.75;;;35.08;14.92
6433;BME280;3249;42.690;23.260;2022-07-23T13:38:41;94639.28;;;34.70;15.43
6433;BME280;3249;42.690;23.260;2022-07-23T13:41:06;94633.00;;;34.59;14.86
6433;BME280;3249;42.690;23.260;2022-07-23T13:43:32;94656.38;;;34.85;15.11